Time;durP1;ratioP1;P1;durP2;ratioP2;P2;SDS_P1;SDS_P2;PMS_P1;PMS_P2;Temp;Humidity;BMP_temperature;BMP_pressure;BME280_temperature;BME280_humidity;BME280_pressure;Samples;Min_cycle;Max_cycle;Signal;HPM_P1;HPM_P2
2023/02/18 00:01:15;;;;;;;;;;;12.30;1.00;;;;;;5084290;28;19920;-73
2023/02/18 00:03:41;;;;;;;;;;;12.30;1.00;;;;;;5081569;28;19916;-72
2023/02/18 00:06:11;;;;;;;;;;;12.30;1.00;;;;;;5083257;28;19917;-72
2023/02/18 00:08:38;;;;;;;;;;;12.30;1.00;;;;;;5084642;28;19923;-79
2023/02/18 00:11:05;;;;;;;;;;;12.30;1.00;;;;;;5086229;28;19915;-78
2023/02/18 00:13:31;;;;;;;;;;;12.30;1.00;;;;;;5082658;28;19912;-80
2023/02/18 00:16:16;;;;;;;;;;;12.40;1.00;;;;;;5092707;28;19916;-77
2023/02/18 00:18:42;;;;;;;;;;;12.50;1.00;;;;;;5085101;28;19920;-77
2023/02/18 00:21:08;;;;;;;;;;;12.40;1.00;;;;;;5084956;28;19912;-76
2023/02/18 00:23:34;;;;;;;;;;;12.40;1.00;;;;;;5084877;28;19912;-75
2023/02/18 00:26:01;;;;;;;;;;;12.40;1.00;;;;;;5084756;28;20372;-77
2023/02/18 00:28:27;;;;;;;;;;;12.40;1.00;;;;;;5082766;28;19916;-77
2023/02/18 00:30:53;;;;;;;;;;;12.40;1.00;;;;;;5091292;28;19912;-75
2023/02/18 00:33:19;;;;;;;;;;;12.40;1.00;;;;;;5082617;28;19916;-79
2023/02/18 00:35:45;;;;;;;;;;;12.40;1.00;;;;;;5117849;27;19931;-75
2023/02/18 00:38:14;;;;;;;;;;;12.40;1.00;;;;;;5091854;28;19920;-78
2023/02/18 00:40:40;;;;;;;;;;;12.40;1.00;;;;;;5078648;28;19924;-76
2023/02/18 00:43:07;;;;;;;;;;;12.40;1.00;;;;;;5085131;28;19912;-75
2023/02/18 00:45:33;;;;;;;;;;;12.40;1.00;;;;;;5117799;28;19920;-80
2023/02/18 00:47:59;;;;;;;;;;;12.40;1.00;;;;;;5099901;28;19912;-76
2023/02/18 00:50:25;;;;;;;;;;;12.40;1.00;;;;;;5082170;28;20011;-75
2023/02/18 00:52:51;;;;;;;;;;;12.40;1.00;;;;;;5084363;28;20381;-75
2023/02/18 00:55:16;;;;;;;;;;;12.40;1.00;;;;;;5089427;28;20015;-75
2023/02/18 00:57:42;;;;;;;;;;;12.30;1.00;;;;;;5117787;28;19908;-76
2023/02/18 01:00:09;;;;;;;;;;;12.40;1.00;;;;;;5081215;28;20018;-76
2023/02/18 01:02:35;;;;;;;;;;;12.30;1.00;;;;;;5116461;28;19928;-76
2023/02/18 01:05:01;;;;;;;;;;;12.30;1.00;;;;;;5082753;28;19984;-72
2023/02/18 01:07:27;;;;;;;;;;;12.30;1.00;;;;;;5082710;28;20293;-74
2023/02/18 01:09:53;;;;;;;;;;;12.40;1.00;;;;;;5082097;28;20015;-73
2023/02/18 01:12:18;;;;;;;;;;;12.30;1.00;;;;;;5081981;28;20417;-73
2023/02/18 01:14:45;;;;;;;;;;;12.30;1.00;;;;;;5082070;28;19954;-75
2023/02/18 01:17:10;;;;;;;;;;;12.30;1.00;;;;;;5083598;28;19908;-75
2023/02/18 01:19:39;;;;;;;;;;;12.30;1.00;;;;;;5084582;28;19920;-79
2023/02/18 01:22:05;;;;;;;;;;;12.20;1.00;;;;;;5085530;28;19909;-74
2023/02/18 01:24:31;;;;;;;;;;;12.20;1.00;;;;;;5089209;28;19912;-76
2023/02/18 01:26:59;;;;;;;;;;;12.20;1.00;;;;;;5092255;28;19913;-76
2023/02/18 01:29:25;;;;;;;;;;;12.30;1.00;;;;;;5087098;28;19912;-75
2023/02/18 01:31:51;;;;;;;;;;;12.30;1.00;;;;;;5084619;28;20349;-74
2023/02/18 01:34:17;;;;;;;;;;;12.30;1.00;;;;;;5088164;28;20146;-76
2023/02/18 01:36:43;;;;;;;;;;;12.30;1.00;;;;;;5088141;28;19913;-76
2023/02/18 01:39:09;;;;;;;;;;;12.30;1.00;;;;;;5119066;27;20361;-76
2023/02/18 01:41:35;;;;;;;;;;;12.30;1.00;;;;;;5086189;28;19913;-73
2023/02/18 01:44:14;;;;;;;;;;;12.20;1.00;;;;;;5093115;28;19991;-77
2023/02/18 01:46:41;;;;;;;;;;;12.20;1.00;;;;;;5088536;28;19912;-78
2023/02/18 01:49:07;;;;;;;;;;;12.20;1.00;;;;;;5085626;28;19919;-77
2023/02/18 01:51:36;;;;;;;;;;;12.20;1.00;;;;;;5093058;28;19912;-77
2023/02/18 01:54:13;;;;;;;;;;;12.20;1.00;;;;;;5096520;28;19912;-76
2023/02/18 01:56:39;;;;;;;;;;;12.20;1.00;;;;;;5087005;28;19916;-78
2023/02/18 01:59:11;;;;;;;;;;;12.20;1.00;;;;;;5091869;28;19985;-78
2023/02/18 02:01:38;;;;;;;;;;;12.20;1.00;;;;;;5086336;28;19924;-78
2023/02/18 02:04:04;;;;;;;;;;;12.20;1.00;;;;;;5120190;27;19920;-77
2023/02/18 02:06:30;;;;;;;;;;;12.20;1.00;;;;;;5084027;28;20008;-77
2023/02/18 02:08:57;;;;;;;;;;;12.20;1.00;;;;;;5085984;28;19963;-77
2023/02/18 02:11:32;;;;;;;;;;;12.20;1.00;;;;;;5085449;28;19908;-74
2023/02/18 02:14:12;;;;;;;;;;;12.20;1.00;;;;;;5084684;28;20361;-77
2023/02/18 02:17:01;;;;;;;;;;;12.10;1.00;;;;;;5084960;28;19913;-78
2023/02/18 02:19:27;;;;;;;;;;;12.20;1.00;;;;;;5085356;28;19924;-76
2023/02/18 02:21:53;;;;;;;;;;;12.20;1.00;;;;;;5085325;28;19919;-78
2023/02/18 02:24:34;;;;;;;;;;;12.20;1.00;;;;;;5087261;28;19915;-79
2023/02/18 02:27:10;;;;;;;;;;;12.10;1.00;;;;;;5115610;27;19912;-79
2023/02/18 02:29:54;;;;;;;;;;;12.10;1.00;;;;;;5085760;28;19919;-79
2023/02/18 02:32:30;;;;;;;;;;;12.10;1.00;;;;;;5084326;28;19916;-77
2023/02/18 02:35:06;;;;;;;;;;;12.10;1.00;;;;;;5084456;28;19912;-78
2023/02/18 02:37:35;;;;;;;;;;;12.10;1.00;;;;;;5084596;28;19919;-78
2023/02/18 02:40:10;;;;;;;;;;;12.00;1.00;;;;;;5088850;28;19920;-79
2023/02/18 02:42:46;;;;;;;;;;;12.00;1.00;;;;;;5093991;28;19919;-79
2023/02/18 02:45:20;;;;;;;;;;;12.00;1.00;;;;;;5091466;28;20365;-78
2023/02/18 02:47:52;;;;;;;;;;;12.00;1.00;;;;;;5119191;27;19931;-82
2023/02/18 02:50:30;;;;;;;;;;;12.00;1.00;;;;;;5118675;27;19912;-79
2023/02/18 02:53:00;;;;;;;;;;;12.00;1.00;;;;;;5085166;28;19995;-78
2023/02/18 02:55:26;;;;;;;;;;;12.10;1.00;;;;;;5085959;28;19908;-78
2023/02/18 02:57:55;;;;;;;;;;;12.10;1.00;;;;;;5092646;28;19919;-79
2023/02/18 03:00:31;;;;;;;;;;;12.00;1.00;;;;;;5093784;28;19920;-75
2023/02/18 03:03:03;;;;;;;;;;;12.10;1.00;;;;;;5083953;28;19925;-74
2023/02/18 03:05:43;;;;;;;;;;;12.00;1.00;;;;;;5090717;28;19912;-77
2023/02/18 03:08:09;;;;;;;;;;;12.00;1.00;;;;;;5086594;28;20519;-78
2023/02/18 03:10:42;;;;;;;;;;;12.00;1.00;;;;;;5119337;27;19931;-79
2023/02/18 03:13:15;;;;;;;;;;;11.90;1.00;;;;;;5092749;28;19912;-77
2023/02/18 03:15:49;;;;;;;;;;;12.00;1.00;;;;;;5093339;28;19912;-77
2023/02/18 03:18:33;;;;;;;;;;;11.90;1.00;;;;;;5118076;27;19916;-76
2023/02/18 03:21:05;;;;;;;;;;;11.90;1.00;;;;;;5085302;28;19924;-76
2023/02/18 03:23:33;;;;;;;;;;;11.80;1.00;;;;;;5092587;28;19935;-77
2023/02/18 03:26:01;;;;;;;;;;;11.80;1.00;;;;;;5084592;28;19974;-75
2023/02/18 03:28:31;;;;;;;;;;;11.90;1.00;;;;;;5118400;27;19927;-77
2023/02/18 03:31:09;;;;;;;;;;;11.90;1.00;;;;;;5084020;28;20281;-78
2023/02/18 03:33:38;;;;;;;;;;;12.00;1.00;;;;;;5096870;28;19916;-74
2023/02/18 03:36:04;;;;;;;;;;;12.00;1.00;;;;;;5083158;28;19912;-77
2023/02/18 03:38:34;;;;;;;;;;;12.00;1.00;;;;;;5086227;28;20371;-77
2023/02/18 03:41:00;;;;;;;;;;;11.90;1.00;;;;;;5091898;28;20254;-75
2023/02/18 03:43:27;;;;;;;;;;;12.00;1.00;;;;;;5092490;28;20372;-75
2023/02/18 03:45:53;;;;;;;;;;;12.00;1.00;;;;;;5083196;28;20273;-76
2023/02/18 03:48:19;;;;;;;;;;;11.90;1.00;;;;;;5085646;28;19912;-79
2023/02/18 03:50:45;;;;;;;;;;;11.90;1.00;;;;;;5114972;27;19916;-76
2023/02/18 03:53:11;;;;;;;;;;;12.00;1.00;;;;;;5095982;28;19912;-75
2023/02/18 03:55:37;;;;;;;;;;;12.00;1.00;;;;;;5091176;28;19917;-77
2023/02/18 03:58:03;;;;;;;;;;;12.00;1.00;;;;;;5082748;28;19981;-76
2023/02/18 04:00:29;;;;;;;;;;;11.90;1.00;;;;;;5085052;28;19953;-76
2023/02/18 04:02:55;;;;;;;;;;;11.90;1.00;;;;;;5082570;28;20361;-78
2023/02/18 04:05:21;;;;;;;;;;;11.90;1.00;;;;;;5082642;28;19912;-77
2023/02/18 04:07:47;;;;;;;;;;;12.00;1.00;;;;;;5084504;28;19908;-77
2023/02/18 04:10:13;;;;;;;;;;;12.00;1.00;;;;;;5082235;28;19913;-75
2023/02/18 04:12:39;;;;;;;;;;;12.00;1.00;;;;;;5084404;28;19919;-76
2023/02/18 04:15:05;;;;;;;;;;;11.90;1.00;;;;;;5084324;28;19908;-75
2023/02/18 04:17:31;;;;;;;;;;;12.00;1.00;;;;;;5082568;28;19912;-75
2023/02/18 04:19:58;;;;;;;;;;;12.00;1.00;;;;;;5084626;28;19927;-80
2023/02/18 04:22:23;;;;;;;;;;;12.00;1.00;;;;;;5119618;27;19923;-76
2023/02/18 04:24:49;;;;;;;;;;;11.90;1.00;;;;;;5082286;28;19943;-75
2023/02/18 04:27:15;;;;;;;;;;;11.90;1.00;;;;;;5091224;28;19912;-76
2023/02/18 04:29:41;;;;;;;;;;;11.80;1.00;;;;;;5083701;28;20340;-77
2023/02/18 04:32:07;;;;;;;;;;;11.70;1.00;;;;;;5082043;28;19916;-78
2023/02/18 04:34:34;;;;;;;;;;;11.70;1.00;;;;;;5086600;28;19935;-79
2023/02/18 04:37:00;;;;;;;;;;;11.70;1.00;;;;;;5090151;28;19952;-76
2023/02/18 04:39:26;;;;;;;;;;;11.70;1.00;;;;;;5113651;28;19924;-76
2023/02/18 04:41:52;;;;;;;;;;;11.70;1.00;;;;;;5081743;28;19944;-78
2023/02/18 04:44:18;;;;;;;;;;;11.80;99.90;;;;;;5090330;28;19916;-76
2023/02/18 04:46:44;;;;;;;;;;;11.80;99.90;;;;;;5084188;28;19912;-76
2023/02/18 04:49:10;;;;;;;;;;;11.80;99.90;;;;;;5082191;28;19958;-76
2023/02/18 04:51:36;;;;;;;;;;;11.90;99.90;;;;;;5084096;28;19962;-77
2023/02/18 04:54:02;;;;;;;;;;;11.90;99.90;;;;;;5084107;28;19915;-75
2023/02/18 04:56:28;;;;;;;;;;;11.90;99.90;;;;;;5084512;28;20278;-74
2023/02/18 04:58:54;;;;;;;;;;;11.90;99.90;;;;;;5088685;28;19919;-76
2023/02/18 05:01:20;;;;;;;;;;;11.90;99.90;;;;;;5088682;28;19965;-74
2023/02/18 05:03:46;;;;;;;;;;;12.00;99.90;;;;;;5085193;28;19916;-75
2023/02/18 05:06:12;;;;;;;;;;;11.90;99.90;;;;;;5088437;28;19912;-74
2023/02/18 05:08:38;;;;;;;;;;;11.90;99.90;;;;;;5088774;28;20023;-74
2023/02/18 05:11:08;;;;;;;;;;;11.90;99.90;;;;;;5088502;28;19912;-75
2023/02/18 05:13:34;;;;;;;;;;;11.80;99.90;;;;;;5089462;28;19912;-74
2023/02/18 05:16:00;;;;;;;;;;;11.70;99.90;;;;;;5086860;28;20387;-74
2023/02/18 05:18:26;;;;;;;;;;;11.70;99.90;;;;;;5087373;28;19909;-75
2023/02/18 05:20:52;;;;;;;;;;;11.70;99.90;;;;;;5085704;28;19916;-74
2023/02/18 05:23:20;;;;;;;;;;;11.70;99.90;;;;;;5087045;28;19916;-75
2023/02/18 05:25:46;;;;;;;;;;;11.80;99.90;;;;;;5088102;28;19912;-75
2023/02/18 05:28:12;;;;;;;;;;;11.70;99.90;;;;;;5085737;28;20322;-76
2023/02/18 05:30:38;;;;;;;;;;;11.80;99.90;;;;;;5084170;28;19963;-75
2023/02/18 05:33:04;;;;;;;;;;;11.80;99.90;;;;;;5088833;28;20349;-76
2023/02/18 05:35:30;;;;;;;;;;;11.90;99.90;;;;;;5086169;28;19912;-77
2023/02/18 05:37:56;;;;;;;;;;;11.80;99.90;;;;;;5087725;28;19912;-76
2023/02/18 05:40:22;;;;;;;;;;;11.70;99.90;;;;;;5087285;28;19916;-77
2023/02/18 05:42:48;;;;;;;;;;;11.70;99.90;;;;;;5085619;28;20007;-76
2023/02/18 05:45:14;;;;;;;;;;;11.60;99.90;;;;;;5087867;28;20316;-77
2023/02/18 05:47:40;;;;;;;;;;;11.70;99.90;;;;;;5091637;28;19912;-77
2023/02/18 05:50:06;;;;;;;;;;;11.70;99.90;;;;;;5086249;28;19913;-75
2023/02/18 05:52:32;;;;;;;;;;;11.80;99.90;;;;;;5088953;28;19919;-76
2023/02/18 05:54:58;;;;;;;;;;;11.90;99.90;;;;;;5089225;28;19908;-75
2023/02/18 05:57:24;;;;;;;;;;;11.90;99.90;;;;;;5088799;28;20371;-78
2023/02/18 05:59:50;;;;;;;;;;;11.90;99.90;;;;;;5086056;28;19917;-77
2023/02/18 06:02:16;;;;;;;;;;;11.90;99.90;;;;;;5087890;28;19963;-77
2023/02/18 06:04:42;;;;;;;;;;;11.80;99.90;;;;;;5092424;28;19959;-77
2023/02/18 06:07:08;;;;;;;;;;;11.80;99.90;;;;;;5089871;28;19938;-77
2023/02/18 06:09:34;;;;;;;;;;;11.80;99.90;;;;;;5088764;28;19997;-77
2023/02/18 06:12:00;;;;;;;;;;;11.80;99.90;;;;;;5095791;28;19912;-75
2023/02/18 06:14:26;;;;;;;;;;;11.80;99.90;;;;;;5085570;28;19948;-77
2023/02/18 06:16:51;;;;;;;;;;;11.80;99.90;;;;;;5082535;28;19969;-77
2023/02/18 06:19:17;;;;;;;;;;;11.80;99.90;;;;;;5087617;28;20007;-77
2023/02/18 06:21:43;;;;;;;;;;;11.80;99.90;;;;;;5085291;28;19917;-78
2023/02/18 06:24:09;;;;;;;;;;;11.80;99.90;;;;;;5099121;28;19935;-77
2023/02/18 06:26:35;;;;;;;;;;;11.80;99.90;;;;;;5097540;28;19909;-78
2023/02/18 06:29:01;;;;;;;;;;;11.90;99.90;;;;;;5096571;28;19912;-78
2023/02/18 06:31:28;;;;;;;;;;;11.90;99.90;;;;;;5088754;28;19916;-78
2023/02/18 06:33:54;;;;;;;;;;;11.80;99.90;;;;;;5092608;28;19928;-76
2023/02/18 06:36:19;;;;;;;;;;;11.90;99.90;;;;;;5102674;28;19967;-77
2023/02/18 06:38:45;;;;;;;;;;;11.80;99.90;;;;;;5096958;28;19951;-78
2023/02/18 06:41:12;;;;;;;;;;;11.80;99.90;;;;;;5102478;28;19920;-79
2023/02/18 06:43:38;;;;;;;;;;;11.70;99.90;;;;;;5095927;28;19908;-78
2023/02/18 06:46:04;;;;;;;;;;;11.60;99.90;;;;;;5100620;28;20258;-77
2023/02/18 06:48:30;;;;;;;;;;;11.60;99.90;;;;;;5100717;28;19947;-78
2023/02/18 06:50:56;;;;;;;;;;;11.60;99.90;;;;;;5100969;28;20377;-78
2023/02/18 06:53:22;;;;;;;;;;;11.70;99.90;;;;;;5097102;28;19908;-77
2023/02/18 06:55:48;;;;;;;;;;;11.70;99.90;;;;;;5100584;28;19920;-77
2023/02/18 06:58:14;;;;;;;;;;;11.80;99.90;;;;;;5095221;28;20387;-77
2023/02/18 07:00:40;;;;;;;;;;;11.80;99.90;;;;;;5098973;28;19927;-76
2023/02/18 07:03:07;;;;;;;;;;;11.80;99.90;;;;;;5095214;28;19931;-75
2023/02/18 07:05:33;;;;;;;;;;;11.90;99.90;;;;;;5096174;28;20364;-75
2023/02/18 07:07:59;;;;;;;;;;;12.00;99.90;;;;;;5088699;28;19919;-75
2023/02/18 07:10:25;;;;;;;;;;;12.00;99.90;;;;;;5096572;28;20282;-76
2023/02/18 07:12:51;;;;;;;;;;;12.00;99.90;;;;;;5092944;28;19952;-77
2023/02/18 07:15:17;;;;;;;;;;;12.10;99.90;;;;;;5094816;28;19941;-76
2023/02/18 07:17:43;;;;;;;;;;;12.10;99.90;;;;;;5097425;28;19913;-76
2023/02/18 07:20:09;;;;;;;;;;;12.10;99.90;;;;;;5097200;28;19916;-77
2023/02/18 07:22:35;;;;;;;;;;;12.20;99.90;;;;;;5093724;28;19978;-75
2023/02/18 07:25:01;;;;;;;;;;;12.20;99.90;;;;;;5095140;28;20327;-76
2023/02/18 07:27:27;;;;;;;;;;;12.20;99.90;;;;;;5093040;28;19912;-76
2023/02/18 07:29:53;;;;;;;;;;;12.20;99.90;;;;;;5097505;28;20319;-76
2023/02/18 07:32:19;;;;;;;;;;;12.30;99.90;;;;;;5088782;28;19913;-76
2023/02/18 07:34:45;;;;;;;;;;;12.30;99.90;;;;;;5096769;28;19923;-77
2023/02/18 07:37:11;;;;;;;;;;;12.40;99.90;;;;;;5092036;28;19923;-77
2023/02/18 07:39:41;;;;;;;;;;;12.30;99.90;;;;;;5099812;28;19923;-77
2023/02/18 07:42:07;;;;;;;;;;;12.40;99.90;;;;;;5097528;28;19911;-76
2023/02/18 07:44:33;;;;;;;;;;;12.40;99.90;;;;;;5091957;28;19912;-78
2023/02/18 07:46:59;;;;;;;;;;;12.50;99.90;;;;;;5100941;28;19915;-77
2023/02/18 07:49:25;;;;;;;;;;;12.60;99.90;;;;;;5111431;27;19912;-78
2023/02/18 07:51:51;;;;;;;;;;;12.60;99.90;;;;;;5089086;28;19916;-76
2023/02/18 07:54:17;;;;;;;;;;;12.60;99.90;;;;;;5095678;28;20428;-77
2023/02/18 07:56:44;;;;;;;;;;;12.60;99.90;;;;;;5094763;28;19912;-77
2023/02/18 07:59:10;;;;;;;;;;;12.60;99.90;;;;;;5094325;28;19916;-76
2023/02/18 08:01:36;;;;;;;;;;;12.60;99.90;;;;;;5093166;28;19927;-77
2023/02/18 08:04:05;;;;;;;;;;;12.60;99.90;;;;;;5095703;28;19916;-76
2023/02/18 08:06:34;;;;;;;;;;;12.50;99.90;;;;;;5098016;28;19923;-79
2023/02/18 08:09:00;;;;;;;;;;;12.50;99.90;;;;;;5092715;28;19941;-82
2023/02/18 08:11:27;;;;;;;;;;;12.60;99.90;;;;;;5100868;28;19909;-76
2023/02/18 08:13:53;;;;;;;;;;;12.60;99.90;;;;;;5090936;28;19912;-76
2023/02/18 08:16:20;;;;;;;;;;;12.60;99.90;;;;;;5094275;28;19912;-75
2023/02/18 08:18:46;;;;;;;;;;;12.60;99.90;;;;;;5091951;28;20365;-75
2023/02/18 08:21:13;;;;;;;;;;;12.60;99.90;;;;;;5093071;28;20365;-76
2023/02/18 08:23:39;;;;;;;;;;;12.70;99.90;;;;;;5093789;28;19916;-78
2023/02/18 08:26:05;;;;;;;;;;;12.60;99.90;;;;;;5100034;28;20280;-79
2023/02/18 08:28:41;;;;;;;;;;;12.70;99.90;;;;;;5105121;28;19915;-79
2023/02/18 08:31:14;;;;;;;;;;;12.60;99.90;;;;;;5087119;28;19924;-78
2023/02/18 08:33:40;;;;;;;;;;;12.60;99.90;;;;;;5098989;28;19917;-79
2023/02/18 08:36:09;;;;;;;;;;;12.70;99.90;;;;;;5109149;28;19912;-80
2023/02/18 08:38:35;;;;;;;;;;;12.70;99.90;;;;;;5097555;28;20285;-80
2023/02/18 08:41:01;;;;;;;;;;;12.70;99.90;;;;;;5092965;28;19916;-79
2023/02/18 08:43:27;;;;;;;;;;;12.80;99.90;;;;;;5093284;28;19927;-80
2023/02/18 08:45:53;;;;;;;;;;;12.80;99.90;;;;;;5093267;28;19923;-80
2023/02/18 08:48:19;;;;;;;;;;;12.70;99.90;;;;;;5097701;28;20285;-80
2023/02/18 08:50:46;;;;;;;;;;;12.70;99.90;;;;;;5091382;28;19954;-80
2023/02/18 08:53:12;;;;;;;;;;;12.70;99.90;;;;;;5098492;28;20383;-79
2023/02/18 08:55:39;;;;;;;;;;;12.70;99.90;;;;;;5106108;28;19916;-77
2023/02/18 08:58:05;;;;;;;;;;;12.70;99.90;;;;;;5102766;28;19919;-83
2023/02/18 09:00:31;;;;;;;;;;;12.80;99.90;;;;;;5096996;28;19935;-82
2023/02/18 09:02:57;;;;;;;;;;;12.80;99.90;;;;;;5101708;28;19928;-79
2023/02/18 09:05:23;;;;;;;;;;;12.90;99.90;;;;;;5094910;28;19912;-84
2023/02/18 09:17:14;;;;;;;;;;;12.90;99.90;;;;;;5221498;23;19937;-75
2023/02/18 09:19:40;;;;;;;;;;;12.90;99.90;;;;;;4984436;28;20374;-75
2023/02/18 09:22:06;;;;;;;;;;;12.90;99.90;;;;;;4963489;28;19925;-74
2023/02/18 09:24:36;;;;;;;;;;;12.90;99.90;;;;;;4987987;28;19918;-74
2023/02/18 09:27:02;;;;;;;;;;;12.90;99.90;;;;;;4978281;28;19914;-76
2023/02/18 09:29:28;;;;;;;;;;;12.90;99.90;;;;;;4992914;28;20346;-73
2023/02/18 09:31:54;;;;;;;;;;;13.00;99.90;;;;;;4991781;28;19920;-74
2023/02/18 09:34:20;;;;;;;;;;;12.90;99.90;;;;;;4991110;28;19910;-75
2023/02/18 09:36:46;;;;;;;;;;;12.90;99.90;;;;;;4968393;28;19914;-75
2023/02/18 09:39:12;;;;;;;;;;;13.00;99.90;;;;;;4982526;28;19910;-74
2023/02/18 09:41:42;;;;;;;;;;;13.00;99.90;;;;;;4994867;28;19918;-76
2023/02/18 09:44:11;;;;;;;;;;;13.00;99.90;;;;;;4996115;28;19918;-76
2023/02/18 09:46:54;;;;;;;;;;;13.00;99.90;;;;;;4981133;28;20351;-74
2023/02/18 09:49:25;;;;;;;;;;;13.00;99.90;;;;;;4976234;28;20274;-73
2023/02/18 09:51:52;;;;;;;;;;;13.00;99.90;;;;;;4982313;28;19913;-74
2023/02/18 09:54:19;;;;;;;;;;;13.00;99.90;;;;;;4995864;28;19914;-73
2023/02/18 09:59:27;;;;;;;;;;;12.80;99.90;;;;;;5110060;23;20273;-75
2023/02/18 10:01:53;;;;;;;;;;;12.80;99.90;;;;;;4999956;28;19948;-74
2023/02/18 10:04:29;;;;;;;;;;;12.70;99.90;;;;;;5003297;28;19922;-75
2023/02/18 10:06:55;;;;;;;;;;;12.70;99.90;;;;;;5001358;28;19924;-73
2023/02/18 10:09:26;;;;;;;;;;;12.70;99.90;;;;;;5007220;28;19913;-74
2023/02/18 10:11:57;;;;;;;;;;;12.70;99.90;;;;;;5008809;28;19922;-74
2023/02/18 10:14:24;;;;;;;;;;;12.70;99.90;;;;;;5007110;28;19921;-75
2023/02/18 10:16:51;;;;;;;;;;;12.70;99.90;;;;;;5009464;28;20023;-76
2023/02/18 10:19:23;;;;;;;;;;;12.70;99.90;;;;;;4997932;28;20374;-74
2023/02/18 10:21:50;;;;;;;;;;;12.70;99.90;;;;;;5003926;28;19925;-75
2023/02/18 10:24:27;;;;;;;;;;;12.70;99.90;;;;;;5007601;28;20354;-75
2023/02/18 10:26:54;;;;;;;;;;;12.60;99.90;;;;;;5010287;28;19921;-75
2023/02/18 10:29:21;;;;;;;;;;;12.60;99.90;;;;;;5007003;28;19914;-72
2023/02/18 10:31:50;;;;;;;;;;;12.70;99.90;;;;;;5007812;28;19922;-74
2023/02/18 10:34:45;;;;;;;;;;;12.60;99.90;;;;;;4995769;28;19921;-74
2023/02/18 10:37:17;;;;;;;;;;;12.70;99.90;;;;;;4935388;28;20435;-74
2023/02/18 10:40:01;;;;;;;;;;;12.60;99.90;;;;;;5006518;28;19914;-74
2023/02/18 10:42:48;;;;;;;;;;;12.70;99.90;;;;;;5011153;28;20373;-74
2023/02/18 10:45:21;;;;;;;;;;;12.60;99.90;;;;;;5010347;28;19917;-74
2023/02/18 10:47:54;;;;;;;;;;;12.60;99.90;;;;;;5007997;28;20289;-76
2023/02/18 10:50:27;;;;;;;;;;;12.60;99.90;;;;;;5007741;28;19913;-79
2023/02/18 10:52:55;;;;;;;;;;;12.50;99.90;;;;;;5006538;28;19924;-76
2023/02/18 10:55:32;;;;;;;;;;;12.50;99.90;;;;;;5006338;28;19909;-80
2023/02/18 10:57:58;;;;;;;;;;;12.60;99.90;;;;;;5008946;28;19924;-75
2023/02/18 11:00:25;;;;;;;;;;;12.60;99.90;;;;;;5008016;28;20020;-75
2023/02/18 11:03:10;;;;;;;;;;;12.60;99.90;;;;;;5009098;28;19925;-74
2023/02/18 11:05:37;;;;;;;;;;;12.60;99.90;;;;;;4997935;28;19913;-71
2023/02/18 11:08:06;;;;;;;;;;;12.50;99.90;;;;;;5007497;28;20372;-75
2023/02/18 11:10:34;;;;;;;;;;;12.60;99.90;;;;;;5006490;28;19921;-72
2023/02/18 11:13:05;;;;;;;;;;;12.60;99.90;;;;;;5004338;28;19913;-77
2023/02/18 11:15:31;;;;;;;;;;;12.70;99.90;;;;;;5010212;28;20277;-75
2023/02/18 11:18:12;;;;;;;;;;;12.70;99.90;;;;;;5006802;28;19913;-77
2023/02/18 11:20:38;;;;;;;;;;;12.70;99.90;;;;;;4994635;28;20282;-75
2023/02/18 11:23:22;;;;;;;;;;;12.80;99.90;;;;;;5012734;28;19921;-74
2023/02/18 11:26:10;;;;;;;;;;;12.80;99.90;;;;;;5007346;28;19922;-82
2023/02/18 11:28:46;;;;;;;;;;;12.80;99.90;;;;;;5005475;28;19914;-74
2023/02/18 11:31:25;;;;;;;;;;;12.80;99.90;;;;;;5006563;28;19924;-77
2023/02/18 11:33:54;;;;;;;;;;;12.80;99.90;;;;;;5006738;28;19928;-74
2023/02/18 11:36:23;;;;;;;;;;;12.90;99.90;;;;;;5006043;28;19913;-73
2023/02/18 11:38:51;;;;;;;;;;;12.90;99.90;;;;;;5003143;28;19920;-75
2023/02/18 11:41:21;;;;;;;;;;;12.90;99.90;;;;;;5007599;28;20365;-77
2023/02/18 11:43:49;;;;;;;;;;;13.00;99.90;;;;;;5005208;28;19918;-74
2023/02/18 11:46:17;;;;;;;;;;;13.00;99.90;;;;;;5007445;28;19920;-74
2023/02/18 11:48:43;;;;;;;;;;;13.00;99.90;;;;;;5008209;28;19920;-73
2023/02/18 11:51:18;;;;;;;;;;;13.00;99.90;;;;;;5008662;28;20369;-74
2023/02/18 11:53:58;;;;;;;;;;;13.10;99.90;;;;;;5009583;28;20273;-74
2023/02/18 11:56:25;;;;;;;;;;;13.00;99.90;;;;;;5005317;28;19914;-73
2023/02/18 11:58:51;;;;;;;;;;;13.00;99.90;;;;;;5010750;28;19914;-74
2023/02/18 12:01:27;;;;;;;;;;;13.00;99.90;;;;;;4987285;28;20127;-73
2023/02/18 12:03:53;;;;;;;;;;;13.00;99.90;;;;;;5008959;28;19985;-77
2023/02/18 12:06:33;;;;;;;;;;;13.00;99.90;;;;;;4987690;28;19922;-73
2023/02/18 12:09:02;;;;;;;;;;;13.10;99.90;;;;;;4995996;28;19914;-76
2023/02/18 12:11:35;;;;;;;;;;;13.10;99.90;;;;;;4994509;28;19921;-76
2023/02/18 12:14:01;;;;;;;;;;;13.10;99.90;;;;;;4995165;28;19913;-76
2023/02/18 12:16:30;;;;;;;;;;;13.10;99.90;;;;;;4992855;28;19913;-77
2023/02/18 12:18:56;;;;;;;;;;;13.20;99.90;;;;;;4992919;28;19913;-73
2023/02/18 12:21:45;;;;;;;;;;;13.20;99.90;;;;;;4996000;28;20374;-86
2023/02/18 12:24:17;;;;;;;;;;;13.20;99.90;;;;;;4996477;28;20274;-79
2023/02/18 12:26:53;;;;;;;;;;;13.20;99.90;;;;;;4996001;28;19926;-80
2023/02/18 12:29:44;;;;;;;;;;;13.30;99.90;;;;;;4992839;28;19921;-77
2023/02/18 12:32:25;;;;;;;;;;;13.40;99.90;;;;;;4997340;28;19918;-80
2023/02/18 12:35:10;;;;;;;;;;;13.50;99.90;;;;;;4999785;28;19921;-75
2023/02/18 12:37:43;;;;;;;;;;;13.60;99.90;;;;;;4993964;28;19913;-73
2023/02/18 12:40:20;;;;;;;;;;;13.70;99.90;;;;;;4993962;28;19918;-73
2023/02/18 12:42:46;;;;;;;;;;;13.60;99.90;;;;;;4994501;28;20385;-74
2023/02/18 12:45:21;;;;;;;;;;;13.70;99.90;;;;;;4993720;28;19921;-81
2023/02/18 12:48:06;;;;;;;;;;;13.70;99.90;;;;;;4993576;28;19913;-74
2023/02/18 12:50:43;;;;;;;;;;;13.80;99.90;;;;;;4994748;28;20370;-76
2023/02/18 12:53:21;;;;;;;;;;;13.90;99.90;;;;;;4996844;28;19914;-74
2023/02/18 12:56:06;;;;;;;;;;;13.90;99.90;;;;;;4999350;28;19913;-75
2023/02/18 12:58:47;;;;;;;;;;;13.90;99.90;;;;;;4997022;28;19914;-74
2023/02/18 13:01:16;;;;;;;;;;;14.00;99.90;;;;;;4992109;28;19949;-75
2023/02/18 13:03:52;;;;;;;;;;;14.00;99.90;;;;;;4995302;28;19913;-74
2023/02/18 13:06:21;;;;;;;;;;;14.10;99.90;;;;;;5002661;28;19928;-75
2023/02/18 13:08:59;;;;;;;;;;;14.10;99.90;;;;;;4994928;28;20313;-76
2023/02/18 13:11:28;;;;;;;;;;;14.10;99.90;;;;;;4995394;28;20298;-80
2023/02/18 13:13:59;;;;;;;;;;;14.00;99.90;;;;;;4996226;28;19914;-75
2023/02/18 13:16:26;;;;;;;;;;;14.10;99.90;;;;;;4989579;28;19914;-83
2023/02/18 13:19:06;;;;;;;;;;;14.10;99.90;;;;;;4995409;28;19936;-74
2023/02/18 13:21:33;;;;;;;;;;;14.10;99.90;;;;;;4981912;28;19970;-75
2023/02/18 13:24:04;;;;;;;;;;;14.10;99.90;;;;;;4979113;28;19913;-73
2023/02/18 13:26:31;;;;;;;;;;;14.10;99.90;;;;;;4998944;28;20290;-74
2023/02/18 13:29:09;;;;;;;;;;;14.10;99.90;;;;;;4996432;28;19941;-75
2023/02/18 13:31:53;;;;;;;;;;;14.10;99.90;;;;;;4994846;28;19925;-73
2023/02/18 13:34:24;;;;;;;;;;;14.20;99.90;;;;;;4999411;28;19929;-72
2023/02/18 13:36:50;;;;;;;;;;;14.20;99.90;;;;;;4995266;28;19913;-72
2023/02/18 13:39:19;;;;;;;;;;;14.10;99.90;;;;;;4995422;28;19914;-75
2023/02/18 13:41:46;;;;;;;;;;;14.10;99.90;;;;;;4994913;28;19922;-75
2023/02/18 13:44:15;;;;;;;;;;;14.00;99.90;;;;;;4999506;28;20281;-74
2023/02/18 13:46:55;;;;;;;;;;;14.00;99.90;;;;;;4995318;28;19913;-78
2023/02/18 13:49:23;;;;;;;;;;;14.00;99.90;;;;;;4987530;28;20353;-75
2023/02/18 13:51:50;;;;;;;;;;;14.00;99.90;;;;;;4981412;28;19910;-76
2023/02/18 13:54:23;;;;;;;;;;;14.00;99.90;;;;;;4990900;28;19921;-75
2023/02/18 13:56:53;;;;;;;;;;;14.00;99.90;;;;;;4995515;28;19914;-78
2023/02/18 13:59:21;;;;;;;;;;;14.00;99.90;;;;;;4994844;28;19914;-74
2023/02/18 14:01:51;;;;;;;;;;;14.10;99.90;;;;;;4986973;28;19949;-74
2023/02/18 14:04:35;;;;;;;;;;;14.00;99.90;;;;;;4998621;28;19913;-75
2023/02/18 14:07:20;;;;;;;;;;;14.20;99.90;;;;;;4995558;28;19929;-74
2023/02/18 14:09:46;;;;;;;;;;;14.10;99.90;;;;;;4993898;28;19917;-73
2023/02/18 14:12:24;;;;;;;;;;;14.20;99.90;;;;;;4995549;28;20267;-74
2023/02/18 14:14:51;;;;;;;;;;;14.30;99.90;;;;;;4995161;28;19921;-76
2023/02/18 14:17:17;;;;;;;;;;;14.30;99.90;;;;;;4995308;28;20023;-74
2023/02/18 14:20:13;;;;;;;;;;;14.30;99.90;;;;;;4980400;28;19964;-76
2023/02/18 14:22:38;;;;;;;;;;;14.40;99.90;;;;;;4988780;28;19925;-74
2023/02/18 14:25:08;;;;;;;;;;;14.50;99.90;;;;;;4994073;28;20018;-74
2023/02/18 14:27:35;;;;;;;;;;;14.30;99.90;;;;;;4993876;28;19909;-73
2023/02/18 14:30:06;;;;;;;;;;;14.20;99.90;;;;;;4980065;28;19915;-76
2023/02/18 14:32:33;;;;;;;;;;;14.10;99.90;;;;;;4985759;28;19921;-77
2023/02/18 14:35:25;;;;;;;;;;;14.00;99.90;;;;;;4984386;28;19921;-74
2023/02/18 14:38:10;;;;;;;;;;;14.00;99.90;;;;;;4992930;28;20338;-75
2023/02/18 14:41:03;;;;;;;;;;;13.90;99.90;;;;;;4991376;28;19921;-76
2023/02/18 14:43:39;;;;;;;;;;;13.80;99.90;;;;;;4991263;28;19928;-77
2023/02/18 14:46:12;;;;;;;;;;;13.70;99.90;;;;;;4994779;28;19964;-75